createdAt,value
2018-04-15T00:01:19.542Z,4.17
2018-04-15T00:03:45.943Z,4.10
2018-04-15T00:06:12.359Z,4.70
2018-04-15T00:08:38.765Z,5.27
2018-04-15T00:11:05.148Z,4.57
2018-04-15T00:13:31.566Z,4.60
2018-04-15T00:15:58.012Z,4.90
2018-04-15T00:18:24.375Z,4.17
2018-04-15T00:20:50.786Z,5.00
2018-04-15T00:23:17.174Z,4.33
2018-04-15T00:25:44.319Z,4.57
2018-04-15T00:28:10.713Z,4.43
2018-04-15T00:30:38.636Z,4.40
2018-04-15T00:33:05.034Z,4.57
2018-04-15T00:35:31.415Z,5.00
2018-04-15T00:37:57.835Z,4.90
2018-04-15T00:40:24.228Z,4.57
2018-04-15T00:42:52.105Z,5.87
2018-04-15T00:45:18.515Z,4.47
2018-04-15T00:47:44.900Z,5.63
2018-04-15T00:50:11.270Z,4.77
2018-04-15T00:52:37.662Z,4.77
2018-04-15T00:55:04.057Z,4.67
2018-04-15T00:57:30.431Z,5.30
2018-04-15T01:00:10.506Z,4.43
2018-04-15T01:02:36.945Z,5.47
2018-04-15T01:05:03.379Z,4.70
2018-04-15T01:07:29.758Z,5.80
2018-04-15T01:09:56.958Z,6.03
2018-04-15T01:12:23.349Z,6.43
2018-04-15T01:14:50.512Z,5.83
2018-04-15T01:17:16.914Z,6.27
2018-04-15T01:19:44.063Z,6.40
2018-04-15T01:22:11.207Z,6.70
2018-04-15T01:24:39.079Z,6.03
2018-04-15T01:27:05.485Z,7.50
2018-04-15T01:29:31.913Z,6.17
2018-04-15T01:31:58.488Z,5.03
2018-04-15T01:34:25.624Z,5.70
2018-04-15T01:36:52.772Z,9.80
2018-04-15T01:39:20.651Z,10.60
2018-04-15T01:41:47.788Z,13.00
2018-04-15T01:44:14.180Z,14.57
2018-04-15T01:46:40.571Z,12.00
2018-04-15T01:49:07.694Z,11.37
2018-04-15T01:51:35.605Z,12.60
2018-04-15T01:54:01.997Z,10.20
2018-04-15T01:56:28.404Z,12.30
2018-04-15T01:58:54.771Z,13.43
2018-04-15T02:01:21.938Z,13.50
2018-04-15T02:03:49.088Z,14.47
2018-04-15T02:06:16.334Z,8.40
2018-04-15T02:08:43.487Z,8.13
2018-04-15T02:11:10.676Z,9.93
2018-04-15T02:13:37.117Z,9.60
2018-04-15T02:16:03.550Z,9.60
2018-04-15T02:18:30.006Z,8.60
2018-04-15T02:20:57.939Z,8.87
2018-04-15T02:23:24.360Z,8.20
2018-04-15T02:25:50.749Z,8.57
2018-04-15T02:28:17.946Z,8.47
2018-04-15T02:30:44.358Z,8.63
2018-04-15T02:33:11.555Z,8.40
2018-04-15T02:35:37.958Z,9.43
2018-04-15T02:38:04.355Z,9.87
2018-04-15T02:40:31.485Z,9.50
2018-04-15T02:42:57.891Z,10.03
2018-04-15T02:45:24.276Z,10.53
2018-04-15T02:47:50.662Z,11.23
2018-04-15T02:50:17.055Z,9.47
2018-04-15T02:52:43.480Z,10.97
2018-04-15T02:55:10.626Z,10.47
2018-04-15T02:57:37.797Z,11.27
2018-04-15T03:00:04.927Z,10.77
2018-04-15T03:02:32.062Z,10.03
2018-04-15T03:04:58.461Z,11.23
2018-04-15T03:07:24.932Z,9.80
2018-04-15T03:09:52.123Z,10.07
2018-04-15T03:12:18.506Z,11.17
2018-04-15T03:14:44.896Z,11.60
2018-04-15T03:17:11.277Z,11.07
2018-04-15T03:19:37.670Z,12.23
2018-04-15T03:22:04.076Z,12.13
2018-04-15T03:24:30.458Z,11.97
2018-04-15T03:26:58.401Z,12.33
2018-04-15T03:29:24.786Z,11.40
2018-04-15T03:31:51.994Z,11.93
2018-04-15T03:34:18.424Z,11.03
2018-04-15T03:36:44.856Z,11.80
2018-04-15T03:39:11.249Z,11.00
2018-04-15T03:41:37.656Z,12.57
2018-04-15T03:44:04.051Z,13.23
2018-04-15T03:46:30.472Z,13.00
2018-04-15T03:48:56.867Z,12.80
2018-04-15T03:51:24.038Z,14.33
2018-04-15T03:53:50.453Z,14.33
2018-04-15T03:56:17.595Z,12.93
2018-04-15T03:58:44.743Z,12.40
2018-04-15T04:01:11.138Z,12.87
2018-04-15T04:03:37.540Z,12.80
2018-04-15T04:06:03.984Z,13.60
2018-04-15T04:08:30.384Z,13.87
2018-04-15T04:10:56.796Z,13.60
2018-04-15T04:13:23.976Z,12.90
2018-04-15T04:15:50.419Z,13.90
2018-04-15T04:18:29.070Z,14.00
2018-04-15T04:21:07.803Z,14.73
2018-04-15T04:23:57.322Z,13.17
2018-04-15T04:26:23.711Z,13.73
2018-04-15T04:28:50.156Z,14.50
2018-04-15T04:31:16.552Z,12.93
2018-04-15T04:33:42.942Z,12.43
2018-04-15T04:36:09.383Z,13.37
2018-04-15T04:38:36.560Z,13.10
2018-04-15T04:41:03.653Z,14.13
2018-04-15T04:43:30.793Z,14.03
2018-04-15T04:45:57.219Z,13.33
2018-04-15T04:48:23.615Z,13.87
2018-04-15T04:50:50.022Z,13.60
2018-04-15T04:53:17.147Z,12.50
2018-04-15T04:55:43.549Z,13.50
2018-04-15T04:58:09.950Z,14.73
2018-04-15T05:00:36.358Z,14.57
2018-04-15T05:03:03.495Z,13.53
2018-04-15T05:05:30.648Z,15.80
2018-04-15T05:07:57.119Z,16.40
2018-04-15T05:10:23.537Z,15.47
2018-04-15T05:12:50.695Z,14.77
2018-04-15T05:15:17.091Z,15.90
2018-04-15T05:17:43.497Z,14.23
2018-04-15T05:20:09.903Z,13.90
2018-04-15T05:22:36.303Z,13.63
2018-04-15T05:25:03.498Z,14.60
2018-04-15T05:27:29.915Z,14.57
2018-04-15T05:29:56.344Z,14.93
2018-04-15T05:32:22.751Z,15.50
2018-04-15T05:34:49.891Z,14.90
2018-04-15T05:37:16.284Z,14.37
2018-04-15T05:39:42.666Z,14.97
2018-04-15T05:42:09.790Z,13.70
2018-04-15T05:44:36.200Z,13.63
2018-04-15T05:47:02.602Z,15.10
2018-04-15T05:49:28.996Z,14.17
2018-04-15T05:51:55.396Z,14.63
2018-04-15T05:54:21.823Z,15.70
2018-04-15T05:56:48.216Z,15.47
2018-04-15T05:59:14.624Z,14.40
2018-04-15T06:01:41.154Z,13.10
2018-04-15T06:04:07.550Z,14.70
2018-04-15T06:06:33.935Z,13.90
2018-04-15T06:09:01.093Z,13.47
2018-04-15T06:11:28.263Z,14.63
2018-04-15T06:13:54.669Z,14.00
2018-04-15T06:16:21.803Z,13.07
2018-04-15T06:18:49.004Z,13.03
2018-04-15T06:21:15.406Z,12.93
2018-04-15T06:23:42.533Z,15.07
2018-04-15T06:26:08.931Z,15.13
2018-04-15T06:28:35.348Z,14.97
2018-04-15T06:31:01.792Z,14.60
2018-04-15T06:33:28.197Z,14.37
2018-04-15T06:35:55.334Z,13.57
2018-04-15T06:38:22.946Z,14.20
2018-04-15T06:40:49.344Z,13.10
2018-04-15T06:43:16.484Z,13.70
2018-04-15T06:45:43.659Z,14.07
2018-04-15T06:48:10.066Z,14.43
2018-04-15T06:50:37.227Z,14.33
2018-04-15T06:53:03.622Z,13.70
2018-04-15T06:55:30.013Z,13.13
2018-04-15T06:57:56.409Z,12.60
2018-04-15T07:00:23.552Z,12.70
2018-04-15T07:02:50.121Z,13.10
2018-04-15T07:05:16.512Z,13.30
2018-04-15T07:07:42.895Z,14.20
2018-04-15T07:10:09.278Z,13.17
2018-04-15T07:12:35.678Z,13.70
2018-04-15T07:15:02.076Z,14.50
2018-04-15T07:17:28.579Z,13.50
2018-04-15T07:19:56.443Z,11.73
2018-04-15T07:22:22.843Z,12.97
2018-04-15T07:24:49.253Z,12.00
2018-04-15T07:27:15.664Z,11.70
2018-04-15T07:29:42.067Z,13.07
2018-04-15T07:32:08.476Z,12.30
2018-04-15T07:34:34.865Z,11.90
2018-04-15T07:37:01.280Z,12.03
2018-04-15T07:39:28.450Z,10.83
2018-04-15T07:41:54.958Z,10.30
2018-04-15T07:44:22.127Z,10.27
2018-04-15T07:46:48.577Z,9.37
2018-04-15T07:49:15.033Z,9.47
2018-04-15T07:51:41.488Z,10.07
2018-04-15T07:54:13.778Z,10.10
2018-04-15T07:56:40.947Z,8.97
2018-04-15T07:59:08.129Z,9.37
2018-04-15T08:01:34.558Z,9.00
2018-04-15T08:04:00.955Z,9.30
2018-04-15T08:06:28.264Z,9.10
2018-04-15T08:08:54.687Z,8.60
2018-04-15T08:11:21.102Z,11.10
2018-04-15T08:13:47.506Z,8.77
2018-04-15T08:16:14.649Z,7.50
2018-04-15T08:18:41.786Z,7.47
2018-04-15T08:21:08.272Z,12.47
2018-04-15T08:23:34.685Z,8.03
2018-04-15T08:26:02.696Z,8.30
2018-04-15T08:28:29.105Z,6.93
2018-04-15T08:30:55.504Z,7.60
2018-04-15T08:33:22.700Z,11.10
2018-04-15T08:35:49.126Z,12.67
2018-04-15T08:38:15.516Z,11.10
2018-04-15T08:40:42.681Z,7.90
2018-04-15T08:43:09.099Z,7.57
2018-04-15T08:45:36.242Z,7.20
2018-04-15T08:48:02.683Z,7.90
2018-04-15T08:50:29.833Z,6.73
2018-04-15T08:52:56.224Z,8.40
2018-04-15T08:55:22.624Z,7.67
2018-04-15T08:57:49.036Z,5.60
2018-04-15T09:00:16.188Z,5.40
2018-04-15T09:02:43.327Z,6.20
2018-04-15T09:05:09.747Z,5.70
2018-04-15T09:07:36.964Z,9.73
2018-04-15T09:10:03.484Z,6.60
2018-04-15T09:12:29.887Z,10.90
2018-04-15T09:14:57.069Z,5.10
2018-04-15T09:17:23.496Z,8.87
2018-04-15T09:19:49.956Z,5.37
2018-04-15T09:22:16.368Z,4.73
2018-04-15T09:24:42.765Z,4.70
2018-04-15T09:29:35.623Z,4.80
2018-04-15T09:32:04.504Z,5.60
2018-04-15T09:34:32.388Z,4.40
2018-04-15T09:36:59.518Z,5.10
2018-04-15T09:39:25.941Z,5.30
2018-04-15T09:41:52.326Z,4.90
2018-04-15T09:44:18.770Z,5.83
2018-04-15T09:46:45.177Z,5.20
2018-04-15T09:49:12.316Z,5.00
2018-04-15T09:51:38.728Z,6.10
2018-04-15T09:54:05.164Z,5.83
2018-04-15T09:56:31.577Z,4.70
2018-04-15T09:58:57.999Z,5.37
2018-04-15T10:01:24.412Z,5.47
2018-04-15T10:03:50.821Z,5.33
2018-04-15T10:06:17.247Z,5.90
2018-04-15T10:08:44.432Z,6.10
2018-04-15T10:11:10.860Z,4.77
2018-04-15T10:13:37.703Z,5.17
2018-04-15T10:16:04.106Z,4.83
2018-04-15T10:18:31.317Z,5.07
2018-04-15T10:20:57.734Z,5.00
2018-04-15T10:23:24.143Z,5.93
2018-04-15T10:25:52.280Z,5.30
2018-04-15T10:28:18.691Z,4.90
2018-04-15T10:30:45.111Z,4.50
2018-04-15T10:33:11.506Z,4.27
2018-04-15T10:35:38.654Z,4.77
2018-04-15T10:38:05.781Z,4.40
2018-04-15T10:40:32.188Z,3.80
2018-04-15T10:42:58.580Z,4.40
2018-04-15T10:45:25.732Z,4.90
2018-04-15T10:47:52.897Z,6.43
2018-04-15T10:50:19.304Z,5.07
2018-04-15T10:52:46.475Z,4.57
2018-04-15T10:55:12.905Z,4.80
2018-04-15T10:57:39.311Z,4.80
2018-04-15T11:00:05.754Z,4.93
2018-04-15T11:02:32.910Z,5.30
2018-04-15T11:05:00.046Z,4.60
2018-04-15T11:07:26.444Z,4.70
2018-04-15T11:09:52.842Z,4.90
2018-04-15T11:12:19.249Z,5.23
2018-04-15T11:14:45.655Z,5.30
2018-04-15T11:17:13.524Z,4.93
2018-04-15T11:19:39.995Z,5.37
2018-04-15T11:22:06.424Z,5.37
2018-04-15T11:24:33.611Z,5.73
2018-04-15T11:27:00.129Z,5.57
2018-04-15T11:29:26.535Z,6.13
2018-04-15T11:31:53.691Z,5.20
2018-04-15T11:34:20.829Z,5.97
2018-04-15T11:36:48.050Z,5.27
2018-04-15T11:39:14.396Z,5.30
2018-04-15T11:41:40.804Z,4.60
2018-04-15T11:44:07.242Z,5.63
2018-04-15T11:46:33.647Z,6.20
2018-04-15T11:49:00.044Z,5.97
2018-04-15T11:51:27.175Z,5.00
2018-04-15T11:53:53.564Z,5.50
2018-04-15T11:56:20.002Z,4.97
2018-04-15T11:58:46.408Z,4.53
2018-04-15T12:01:13.573Z,5.23
2018-04-15T12:03:40.014Z,5.90
2018-04-15T12:06:06.417Z,5.33
2018-04-15T12:08:33.569Z,5.77
2018-04-15T12:11:00.724Z,5.07
2018-04-15T12:13:27.854Z,5.43
2018-04-15T12:15:55.013Z,5.40
2018-04-15T12:18:22.178Z,4.77
2018-04-15T12:20:48.631Z,5.23
2018-04-15T12:23:15.061Z,5.00
2018-04-15T12:25:42.201Z,5.77
2018-04-15T12:28:10.082Z,5.13
2018-04-15T12:30:36.638Z,5.77
2018-04-15T12:33:03.024Z,5.47
2018-04-15T12:35:30.202Z,5.03
2018-04-15T12:37:56.616Z,8.90
2018-04-15T12:40:23.755Z,6.70
2018-04-15T12:42:50.897Z,8.00
2018-04-15T12:45:17.290Z,5.77
2018-04-15T12:47:43.679Z,5.60
2018-04-15T12:50:10.842Z,6.40
2018-04-15T12:52:37.244Z,6.40
2018-04-15T12:55:04.403Z,6.80
2018-04-15T12:57:30.831Z,5.67
2018-04-15T12:59:57.988Z,5.90
2018-04-15T13:02:25.150Z,6.77
2018-04-15T13:04:51.542Z,6.40
2018-04-15T13:07:17.933Z,6.80
2018-04-15T13:09:44.344Z,6.73
2018-04-15T13:12:18.289Z,7.40
2018-04-15T13:14:44.767Z,10.70
2018-04-15T13:17:11.233Z,7.97
2018-04-15T13:19:37.623Z,8.83
2018-04-15T13:22:04.006Z,6.73
2018-04-15T13:24:30.398Z,7.00
2018-04-15T13:26:56.771Z,7.73
2018-04-15T13:29:23.193Z,6.47
2018-04-15T13:31:49.666Z,7.70
2018-04-15T13:34:16.067Z,6.60
2018-04-15T13:36:42.467Z,6.50
2018-04-15T13:39:08.932Z,6.93
2018-04-15T13:41:35.311Z,7.67
2018-04-15T13:44:01.723Z,6.73
2018-04-15T13:46:28.107Z,7.27
2018-04-15T13:48:55.262Z,7.10
2018-04-15T13:51:21.655Z,6.60
2018-04-15T13:53:48.065Z,6.63
2018-04-15T13:56:14.492Z,6.50
2018-04-15T13:58:40.907Z,7.20
2018-04-15T14:01:07.312Z,7.60
2018-04-15T14:03:34.472Z,7.57
2018-04-15T14:06:01.627Z,6.97
2018-04-15T14:08:28.037Z,6.70
2018-04-15T14:10:55.193Z,6.70
2018-04-15T14:13:21.620Z,7.13
2018-04-15T14:15:48.057Z,6.73
2018-04-15T14:18:14.496Z,7.23
2018-04-15T14:20:41.635Z,7.27
2018-04-15T14:23:08.041Z,7.10
2018-04-15T14:25:34.442Z,6.73
2018-04-15T14:28:00.846Z,7.50
2018-04-15T14:30:27.988Z,7.20
2018-04-15T14:32:54.457Z,7.53
2018-04-15T14:35:20.852Z,7.10
2018-04-15T14:37:47.252Z,7.00
2018-04-15T14:40:13.756Z,7.90
2018-04-15T14:42:40.176Z,6.40
2018-04-15T14:45:07.318Z,6.50
2018-04-15T14:47:34.530Z,7.80
2018-04-15T14:50:14.686Z,7.13
2018-04-15T14:52:41.056Z,8.03
2018-04-15T14:55:08.204Z,7.93
2018-04-15T14:57:35.352Z,7.73
2018-04-15T15:00:01.761Z,8.40
2018-04-15T15:02:28.169Z,8.30
2018-04-15T15:04:54.593Z,8.70
2018-04-15T15:07:21.017Z,7.70
2018-04-15T15:09:47.451Z,7.50
2018-04-15T15:12:13.854Z,7.67
2018-04-15T15:14:41.804Z,8.90
2018-04-15T15:17:08.457Z,7.67
2018-04-15T15:19:35.681Z,8.47
2018-04-15T15:22:02.079Z,7.93
2018-04-15T15:24:28.485Z,9.30
2018-04-15T15:26:55.647Z,9.20
2018-04-15T15:29:22.061Z,9.23
2018-04-15T15:31:49.253Z,8.07
2018-04-15T15:34:15.655Z,9.13
2018-04-15T15:36:42.788Z,10.77
2018-04-15T15:39:09.199Z,10.23
2018-04-15T15:41:35.615Z,10.00
2018-04-15T15:44:02.037Z,10.50
2018-04-15T15:46:28.458Z,10.60
2018-04-15T15:48:54.991Z,10.97
2018-04-15T15:51:22.118Z,12.00
2018-04-15T15:53:49.301Z,10.80
2018-04-15T15:56:16.071Z,12.83
2018-04-15T15:58:42.464Z,12.40
2018-04-15T16:01:08.881Z,11.57
2018-04-15T16:03:36.071Z,12.20
2018-04-15T16:06:02.480Z,14.00
2018-04-15T16:08:28.871Z,12.23
2018-04-15T16:10:55.272Z,12.50
2018-04-15T16:13:21.679Z,12.30
2018-04-15T16:15:48.070Z,12.20
2018-04-15T16:18:15.217Z,12.70
2018-04-15T16:20:41.628Z,11.83
2018-04-15T16:23:08.037Z,12.57
2018-04-15T16:25:34.457Z,12.97
2018-04-15T16:28:00.874Z,13.50
2018-04-15T16:30:28.011Z,10.90
2018-04-15T16:32:54.404Z,11.33
2018-04-15T16:35:20.810Z,12.70
2018-04-15T16:37:48.177Z,12.40
2018-04-15T16:40:14.764Z,11.43
2018-04-15T16:42:41.953Z,13.73
2018-04-15T16:45:08.376Z,13.27
2018-04-15T16:47:34.885Z,10.90
2018-04-15T16:50:02.106Z,12.00
2018-04-15T16:52:28.571Z,11.73
2018-04-15T16:54:55.733Z,11.07
2018-04-15T16:57:22.905Z,11.27
2018-04-15T16:59:49.300Z,13.23
2018-04-15T17:02:16.476Z,12.80
2018-04-15T17:04:42.913Z,12.90
2018-04-15T17:07:09.307Z,13.60
2018-04-15T17:09:35.704Z,13.57
2018-04-15T17:12:02.204Z,14.23
2018-04-15T17:14:29.334Z,12.80
2018-04-15T17:16:55.752Z,14.20
2018-04-15T17:19:23.636Z,12.77
2018-04-15T17:21:50.823Z,15.27
2018-04-15T17:24:17.354Z,13.10
2018-04-15T17:26:43.988Z,14.40
2018-04-15T17:29:10.433Z,14.60
2018-04-15T17:31:36.885Z,14.30
2018-04-15T17:34:03.357Z,13.57
2018-04-15T17:36:30.536Z,14.50
2018-04-15T17:38:56.987Z,14.47
2018-04-15T17:41:23.439Z,14.20
2018-04-15T17:43:49.884Z,14.00
2018-04-15T17:46:16.316Z,13.80
2018-04-15T17:48:42.917Z,14.50
2018-04-15T17:51:09.354Z,15.33
2018-04-15T17:53:35.899Z,17.10
2018-04-15T17:56:02.344Z,16.17
2018-04-15T17:58:28.939Z,17.67
2018-04-15T18:00:55.389Z,14.93
2018-04-15T18:03:22.302Z,15.00
2018-04-15T18:05:50.449Z,15.80
2018-04-15T18:08:19.300Z,15.70
2018-04-15T18:10:46.686Z,15.40
2018-04-15T18:13:14.047Z,15.47
2018-04-15T18:15:42.244Z,16.30
2018-04-15T18:18:08.748Z,15.40
2018-04-15T18:20:36.373Z,17.07
2018-04-15T18:23:04.449Z,15.73
2018-04-15T18:25:31.294Z,17.80
2018-04-15T18:28:00.372Z,18.00
2018-04-15T18:30:26.903Z,17.00
2018-04-15T18:32:54.276Z,16.33
2018-04-15T18:35:21.061Z,16.30
2018-04-15T18:37:48.593Z,15.77
2018-04-15T18:40:15.216Z,16.57
2018-04-15T18:42:43.571Z,17.20
2018-04-15T18:45:10.864Z,19.03
2018-04-15T18:47:38.661Z,16.30
2018-04-15T18:50:06.138Z,17.20
2018-04-15T18:52:33.467Z,15.33
2018-04-15T18:55:00.780Z,16.83
2018-04-15T18:57:29.573Z,17.80
2018-04-15T18:59:56.890Z,16.70
2018-04-15T19:02:23.660Z,18.47
2018-04-15T19:04:50.211Z,17.33
2018-04-15T19:07:16.630Z,16.40
2018-04-15T19:09:43.276Z,16.53
2018-04-15T19:12:11.294Z,16.40
2018-04-15T19:14:39.209Z,15.80
2018-04-15T19:17:06.827Z,16.80
2018-04-15T19:19:33.485Z,16.40
2018-04-15T19:22:00.891Z,16.10
2018-04-15T19:24:27.452Z,16.40
2018-04-15T19:26:54.027Z,17.53
2018-04-15T19:29:22.425Z,16.70
2018-04-15T19:31:48.959Z,16.20
2018-04-15T19:34:15.497Z,16.27
2018-04-15T19:36:42.895Z,16.10
2018-04-15T19:39:10.264Z,15.40
2018-04-15T19:41:38.096Z,17.87
2018-04-15T19:44:04.695Z,18.37
2018-04-15T19:46:32.199Z,17.23
2018-04-15T19:49:00.104Z,18.70
2018-04-15T19:51:26.718Z,15.77
2018-04-15T19:53:53.991Z,17.07
2018-04-15T19:56:23.640Z,16.73
2018-04-15T19:58:51.980Z,15.67
2018-04-15T20:01:19.473Z,15.70
2018-04-15T20:03:46.017Z,16.63
2018-04-15T20:06:14.596Z,14.90
2018-04-15T20:08:43.012Z,15.50
2018-04-15T20:11:10.956Z,15.10
2018-04-15T20:13:39.686Z,17.50
2018-04-15T20:16:06.252Z,17.27
2018-04-15T20:18:34.635Z,16.47
2018-04-15T20:21:02.182Z,17.40
2018-04-15T20:23:30.176Z,16.33
2018-04-15T20:25:57.373Z,16.10
2018-04-15T20:28:24.113Z,15.40
2018-04-15T20:30:52.670Z,14.60
2018-04-15T20:33:19.917Z,14.83
2018-04-15T20:35:46.581Z,15.30
2018-04-15T20:38:14.571Z,13.80
2018-04-15T20:40:41.080Z,13.30
2018-04-15T20:43:08.300Z,12.90
2018-04-15T20:45:35.842Z,14.20
2018-04-15T20:48:05.335Z,13.57
2018-04-15T20:50:33.521Z,12.87
2018-04-15T20:53:03.204Z,13.57
2018-04-15T20:55:29.941Z,13.93
2018-04-15T20:58:00.592Z,12.50
2018-04-15T21:00:28.445Z,12.87
2018-04-15T21:02:55.471Z,13.60
2018-04-15T21:05:22.718Z,13.40
2018-04-15T21:07:50.907Z,13.47
2018-04-15T21:10:18.875Z,12.83
2018-04-15T21:12:46.165Z,13.10
2018-04-15T21:15:14.154Z,13.70
2018-04-15T21:17:40.637Z,14.43
2018-04-15T21:20:07.226Z,14.73
2018-04-15T21:22:33.747Z,13.70
2018-04-15T21:25:00.257Z,13.73
2018-04-15T21:27:26.664Z,14.70
2018-04-15T21:29:54.245Z,15.67
2018-04-15T21:32:21.530Z,13.93
2018-04-15T21:34:48.165Z,15.90
2018-04-15T21:37:14.788Z,13.80
2018-04-15T21:39:41.476Z,13.33
2018-04-15T21:42:08.063Z,13.63
2018-04-15T21:44:34.536Z,14.83
2018-04-15T21:47:01.805Z,15.30
2018-04-15T21:49:29.089Z,13.50
2018-04-15T21:51:56.082Z,13.57
2018-04-15T21:54:23.442Z,15.97
2018-04-15T21:56:50.714Z,14.77
2018-04-15T21:59:17.206Z,13.10
2018-04-15T22:01:46.336Z,13.03
2018-04-15T22:04:13.605Z,13.80
2018-04-15T22:06:41.433Z,14.47
2018-04-15T22:09:08.889Z,14.87
2018-04-15T22:11:47.632Z,15.03
2018-04-15T22:14:14.163Z,13.20
2018-04-15T22:16:41.384Z,13.70
2018-04-15T22:19:08.602Z,13.70
2018-04-15T22:21:36.002Z,14.40
2018-04-15T22:24:02.516Z,15.20
2018-04-15T22:26:29.999Z,14.77
2018-04-15T22:28:56.463Z,13.30
2018-04-15T22:31:22.909Z,13.77
2018-04-15T22:33:49.641Z,13.70
2018-04-15T22:36:16.227Z,13.17
2018-04-15T22:38:45.576Z,14.00
2018-04-15T22:41:12.126Z,12.67
2018-04-15T22:43:38.648Z,12.90
2018-04-15T22:46:05.113Z,13.67
2018-04-15T22:48:37.621Z,14.10
2018-04-15T22:51:04.859Z,13.40
2018-04-15T22:53:31.917Z,14.50
2018-04-15T22:55:58.425Z,12.70
2018-04-15T22:58:33.491Z,13.27
2018-04-15T23:00:59.998Z,13.47
2018-04-15T23:03:27.224Z,14.47
2018-04-15T23:05:55.351Z,14.50
2018-04-15T23:08:22.488Z,15.17
2018-04-15T23:10:49.737Z,16.13
2018-04-15T23:13:17.135Z,15.43
2018-04-15T23:15:43.645Z,15.43
2018-04-15T23:18:12.578Z,17.70
2018-04-15T23:20:39.127Z,18.27
2018-04-15T23:23:07.302Z,18.20
2018-04-15T23:25:36.059Z,19.17
2018-04-15T23:28:05.324Z,18.80
2018-04-15T23:30:31.811Z,19.50
2018-04-15T23:32:58.501Z,19.20
2018-04-15T23:35:26.294Z,17.63
2018-04-15T23:37:53.742Z,17.47
2018-04-15T23:40:21.286Z,17.40
2018-04-15T23:42:48.568Z,17.90
2018-04-15T23:45:15.076Z,20.13
2018-04-15T23:47:42.410Z,19.90
2018-04-15T23:50:08.965Z,19.77
2018-04-15T23:52:36.952Z,18.80
2018-04-15T23:55:03.882Z,19.77
2018-04-15T23:57:32.472Z,20.83
